Time;durP1;ratioP1;P1;durP2;ratioP2;P2;SDS_P1;SDS_P2;PMS_P1;PMS_P2;Temp;Humidity;BMP_temperature;BMP_pressure;BME280_temperature;BME280_humidity;BME280_pressure;Samples;Min_cycle;Max_cycle;Signal;HPM_P1;HPM_P2
2022/12/25 00:01:15;;;;;;;18.52;11.55;;;6.70;1.00;;;;;;6224003;23;20591;-82
2022/12/25 00:03:42;;;;;;;22.20;12.10;;;6.40;1.00;;;;;;6222627;23;20265;-83
2022/12/25 00:06:09;;;;;;;19.17;10.07;;;6.40;1.00;;;;;;6224780;23;20294;-82
2022/12/25 00:08:38;;;;;;;20.63;9.43;;;6.40;1.00;;;;;;6226617;23;20179;-84
2022/12/25 00:11:06;;;;;;;20.48;9.38;;;6.30;1.00;;;;;;6224025;23;20219;-83
2022/12/25 00:13:33;;;;;;;19.45;10.40;;;6.30;1.00;;;;;;6223606;23;20254;-83
2022/12/25 00:16:05;;;;;;;15.45;10.32;;;6.30;1.00;;;;;;6223273;23;20181;-83
2022/12/25 00:18:32;;;;;;;26.77;10.80;;;6.20;1.00;;;;;;6224209;23;20245;-83
2022/12/25 00:21:00;;;;;;;18.73;10.32;;;6.50;1.00;;;;;;6225447;23;20256;-82
2022/12/25 00:23:28;;;;;;;18.30;9.55;;;6.10;1.00;;;;;;6221308;23;20203;-83
2022/12/25 00:25:55;;;;;;;14.80;10.05;;;6.10;1.00;;;;;;6225431;23;20254;-83
2022/12/25 00:28:23;;;;;;;23.48;10.88;;;6.20;1.00;;;;;;6221657;23;20235;-83
2022/12/25 00:30:50;;;;;;;20.63;10.98;;;6.10;1.00;;;;;;6226318;23;20710;-82
2022/12/25 00:33:18;;;;;;;19.95;11.70;;;6.10;1.00;;;;;;6240910;23;20170;-82
2022/12/25 00:35:45;;;;;;;18.08;10.25;;;6.00;1.00;;;;;;6243922;23;20174;-82
2022/12/25 00:38:11;;;;;;;17.42;10.38;;;6.00;1.00;;;;;;6244135;23;20206;-82
2022/12/25 00:40:43;;;;;;;25.95;10.70;;;6.10;1.00;;;;;;6231595;23;20250;-83
2022/12/25 00:43:10;;;;;;;25.45;10.35;;;6.00;1.00;;;;;;6225146;23;20644;-83
2022/12/25 00:45:36;;;;;;;24.65;11.40;;;5.90;1.00;;;;;;6217983;23;20181;-83
2022/12/25 00:48:04;;;;;;;18.10;11.07;;;5.90;1.00;;;;;;6218925;23;20679;-83
2022/12/25 00:50:32;;;;;;;20.23;11.38;;;5.70;1.00;;;;;;6220396;23;20258;-83
2022/12/25 00:52:59;;;;;;;21.63;11.52;;;5.80;1.00;;;;;;6220956;23;20211;-83
2022/12/25 00:55:26;;;;;;;23.20;10.50;;;5.70;1.00;;;;;;6228771;23;20235;-82
2022/12/25 00:57:52;;;;;;;24.10;10.15;;;5.70;1.00;;;;;;6244434;23;20190;-82
2022/12/25 01:00:20;;;;;;;19.85;10.98;;;5.80;1.00;;;;;;6234848;23;20235;-83
2022/12/25 01:02:46;;;;;;;19.17;11.10;;;5.70;1.00;;;;;;6235498;23;20232;-83
2022/12/25 01:05:13;;;;;;;25.98;11.90;;;5.80;1.00;;;;;;6244580;23;20198;-82
2022/12/25 01:07:42;;;;;;;26.40;11.32;;;5.80;1.00;;;;;;6245045;23;20160;-82
2022/12/25 01:10:22;;;;;;;22.73;11.43;;;5.70;1.00;;;;;;6244719;23;20202;-82
2022/12/25 01:12:50;;;;;;;20.63;10.50;;;5.70;1.00;;;;;;6236496;23;20191;-83
2022/12/25 01:15:20;;;;;;;29.70;11.40;;;5.70;1.00;;;;;;6223934;23;20244;-84
2022/12/25 01:17:47;;;;;;;23.70;12.60;;;5.70;1.00;;;;;;6236175;23;20191;-82
2022/12/25 01:20:16;;;;;;;24.83;11.10;;;5.60;1.00;;;;;;6242246;23;20220;-82
2022/12/25 01:22:45;;;;;;;22.73;12.20;;;5.70;1.00;;;;;;6224262;23;20254;-84
2022/12/25 01:25:12;;;;;;;31.48;10.75;;;5.60;1.00;;;;;;6223824;23;20207;-84
2022/12/25 01:27:41;;;;;;;27.10;9.95;;;5.40;1.00;;;;;;6224052;23;20179;-83
2022/12/25 01:30:09;;;;;;;19.10;10.15;;;5.40;1.00;;;;;;6223430;23;20175;-84
2022/12/25 01:32:35;;;;;;;18.63;10.95;;;5.40;1.00;;;;;;6222905;23;20195;-83
2022/12/25 01:35:02;;;;;;;25.63;10.70;;;5.40;1.00;;;;;;6222822;23;20175;-83
2022/12/25 01:37:29;;;;;;;29.75;11.80;;;5.40;1.00;;;;;;6223047;23;20191;-83
2022/12/25 01:39:57;;;;;;;19.35;9.90;;;5.40;1.00;;;;;;6223645;23;20235;-83
2022/12/25 01:42:24;;;;;;;17.70;9.45;;;5.40;1.00;;;;;;6242590;23;20202;-82
2022/12/25 01:45:33;;;;;;;20.60;10.50;;;5.30;1.00;;;;;;6244547;23;20234;-81
2022/12/25 01:48:02;;;;;;;18.60;9.05;;;5.30;1.00;;;;;;6244897;23;20148;-82
2022/12/25 01:50:29;;;;;;;16.50;9.25;;;5.10;1.00;;;;;;6244690;23;20199;-82
2022/12/25 01:52:57;;;;;;;16.63;9.60;;;5.30;1.00;;;;;;6244607;23;20191;-82
2022/12/25 01:55:27;;;;;;;22.65;10.10;;;5.50;1.00;;;;;;6244621;23;20167;-82
2022/12/25 01:57:54;;;;;;;24.60;10.98;;;5.20;1.00;;;;;;6244463;23;20186;-82
2022/12/25 02:00:21;;;;;;;20.83;10.10;;;5.50;1.00;;;;;;6243917;23;20183;-82
2022/12/25 02:02:48;;;;;;;18.13;9.40;;;5.20;1.00;;;;;;6244713;23;20193;-82
2022/12/25 02:05:22;;;;;;;18.33;9.52;;;5.20;1.00;;;;;;6244078;23;20164;-82
2022/12/25 02:07:50;;;;;;;21.55;10.15;;;5.10;1.00;;;;;;6238985;23;20183;-82
2022/12/25 02:10:17;;;;;;;22.00;12.45;;;5.30;1.00;;;;;;6231723;23;20214;-83
2022/12/25 02:12:47;;;;;;;29.23;10.52;;;5.10;1.00;;;;;;6223053;23;20233;-83
2022/12/25 02:15:17;;;;;;;17.63;9.85;;;5.10;1.00;;;;;;6224028;23;20255;-83
2022/12/25 02:17:50;;;;;;;18.40;8.65;;;5.00;1.00;;;;;;6224059;23;20167;-83
2022/12/25 02:20:46;;;;;;;22.15;10.40;;;5.20;1.00;;;;;;6223122;23;20248;-83
2022/12/25 02:23:42;;;;;;;20.15;10.52;;;5.00;1.00;;;;;;6223537;23;20190;-82
2022/12/25 02:26:16;;;;;;;17.25;9.68;;;4.80;1.00;;;;;;6223195;23;20179;-84
2022/12/25 02:28:52;;;;;;;25.50;11.18;;;5.00;1.00;;;;;;6223310;23;20163;-83
2022/12/25 02:31:27;;;;;;;25.33;9.90;;;5.00;1.00;;;;;;6222762;23;20199;-84
2022/12/25 02:34:04;;;;;;;21.73;9.45;;;5.00;1.00;;;;;;6223535;23;20199;-83
2022/12/25 02:36:37;;;;;;;21.17;9.82;;;5.20;1.00;;;;;;6222458;23;20227;-82
2022/12/25 02:41:58;;;;;;;18.17;8.60;;;4.70;1.00;;;;;;6222250;23;20246;-82
2022/12/25 03:07:01;;;;;;;34.38;17.92;;;4.70;1.00;;;;;;6224180;23;20166;-83
2022/12/25 03:12:22;;;;;;;28.00;14.35;;;4.60;1.00;;;;;;6222308;23;20257;-83
2022/12/25 03:17:35;;;;;;;20.95;10.57;;;4.50;1.00;;;;;;6222910;23;20235;-83
2022/12/25 03:28:17;;;;;;;13.30;8.90;;;4.50;1.00;;;;;;6234775;23;20211;-83
2022/12/25 03:35:21;;;;;;;24.17;9.70;;;4.40;1.00;;;;;;6233194;23;20229;-82
2022/12/25 03:36:46;;;;;;;20.15;9.10;;;4.40;1.00;;;;;;6225386;23;20179;-83
2022/12/25 04:37:22;;;;;;;22.50;8.75;;;4.30;1.00;;;;;;6242151;23;20162;-88
2022/12/25 04:39:52;;;;;;;18.90;8.45;;;3.80;1.00;;;;;;6228939;23;20227;-89
2022/12/25 04:42:19;;;;;;;22.70;9.88;;;3.90;1.00;;;;;;6227495;23;20326;-88
2022/12/25 04:44:46;;;;;;;21.40;10.02;;;4.00;1.00;;;;;;6228548;23;20180;-88
2022/12/25 04:47:13;;;;;;;21.98;10.07;;;3.90;1.00;;;;;;6227413;23;20261;-88
2022/12/25 04:49:40;;;;;;;15.75;8.05;;;4.20;1.00;;;;;;6227062;23;20616;-89
2022/12/25 04:52:07;;;;;;;26.23;9.32;;;3.90;1.00;;;;;;6226738;23;20196;-88
2022/12/25 04:54:34;;;;;;;24.05;10.30;;;3.90;1.00;;;;;;6228778;23;20179;-87
2022/12/25 04:57:02;;;;;;;23.98;9.65;;;4.00;1.00;;;;;;6224797;23;20675;-88
2022/12/25 04:59:29;;;;;;;26.25;9.65;;;4.00;1.00;;;;;;6224070;23;20626;-87
2022/12/25 05:01:55;;;;;;;20.67;8.48;;;4.00;1.00;;;;;;6231958;23;20187;-86
2022/12/25 05:04:22;;;;;;;21.02;9.65;;;3.90;1.00;;;;;;6244634;23;20170;-87
2022/12/25 05:06:49;;;;;;;23.05;9.48;;;3.70;1.00;;;;;;6239628;23;20237;-87
2022/12/25 05:09:16;;;;;;;13.13;8.77;;;3.80;1.00;;;;;;6224228;23;20179;-87
2022/12/25 05:11:43;;;;;;;27.33;11.23;;;3.80;1.00;;;;;;6222751;23;20247;-88
2022/12/25 05:14:11;;;;;;;21.38;9.18;;;3.80;1.00;;;;;;6222601;23;20207;-87
2022/12/25 05:16:38;;;;;;;19.10;10.38;;;3.80;1.00;;;;;;6224115;23;20207;-86
2022/12/25 05:19:05;;;;;;;23.35;10.73;;;3.70;1.00;;;;;;6231176;23;20218;-87
2022/12/25 05:21:32;;;;;;;26.75;12.45;;;3.70;1.00;;;;;;6243810;23;20219;-87
2022/12/25 05:23:58;;;;;;;22.65;10.52;;;3.70;1.00;;;;;;6234102;23;20245;-88
2022/12/25 05:26:26;;;;;;;16.00;10.07;;;3.60;1.00;;;;;;6228390;23;20186;-87
2022/12/25 05:28:54;;;;;;;20.17;10.52;;;3.70;1.00;;;;;;6227257;23;20254;-88
2022/12/25 05:31:22;;;;;;;14.63;10.50;;;2.90;1.00;;;;;;6229899;23;20230;-88
2022/12/25 05:33:50;;;;;;;28.13;11.45;;;3.80;1.00;;;;;;6227517;23;20254;-88
2022/12/25 05:36:17;;;;;;;23.45;10.00;;;3.80;1.00;;;;;;6225654;23;20179;-88
2022/12/25 05:38:44;;;;;;;23.05;11.15;;;3.80;1.00;;;;;;6226384;23;20538;-88
2022/12/25 05:41:11;;;;;;;17.50;10.35;;;3.70;1.00;;;;;;6227769;23;20222;-87
2022/12/25 05:43:37;;;;;;;16.63;10.15;;;3.50;1.00;;;;;;6240492;23;20199;-86
2022/12/25 05:46:06;;;;;;;25.88;10.82;;;3.60;1.00;;;;;;6230211;23;20266;-89
2022/12/25 05:48:36;;;;;;;19.55;9.35;;;3.60;1.00;;;;;;6237253;23;20166;-86
2022/12/25 05:51:07;;;;;;;13.48;9.18;;;3.60;1.00;;;;;;6244738;23;20190;-88
2022/12/25 05:53:34;;;;;;;21.95;10.40;;;3.60;1.00;;;;;;6244441;23;20179;-87
2022/12/25 05:56:02;;;;;;;19.45;9.90;;;3.60;1.00;;;;;;6233016;23;20258;-86
2022/12/25 05:58:29;;;;;;;20.08;9.50;;;3.60;1.00;;;;;;6223075;23;20234;-87
2022/12/25 06:00:56;;;;;;;14.95;10.10;;;3.60;1.00;;;;;;6230663;23;20206;-87
2022/12/25 06:03:24;;;;;;;20.98;10.80;;;3.50;1.00;;;;;;6243967;23;20195;-86
2022/12/25 06:05:53;;;;;;;24.48;9.60;;;3.70;1.00;;;;;;6235367;23;20199;-88
2022/12/25 06:08:19;;;;;;;19.73;12.02;;;3.50;1.00;;;;;;6228728;23;20184;-86
2022/12/25 06:10:47;;;;;;;25.17;12.02;;;3.50;1.00;;;;;;6228266;23;20255;-87
2022/12/25 06:13:14;;;;;;;25.42;13.15;;;3.60;1.00;;;;;;6227208;23;20175;-87
2022/12/25 06:15:41;;;;;;;34.92;11.35;;;3.50;1.00;;;;;;6227934;23;20214;-88
2022/12/25 06:18:08;;;;;;;19.58;10.45;;;3.70;1.00;;;;;;6229088;23;20203;-86
2022/12/25 06:20:35;;;;;;;23.65;10.65;;;3.60;1.00;;;;;;6228690;23;20207;-89
2022/12/25 06:23:03;;;;;;;27.10;10.40;;;3.40;1.00;;;;;;6228583;23;20219;-90
2022/12/25 06:25:30;;;;;;;49.90;12.48;;;3.30;1.00;;;;;;6227594;23;20191;-90
2022/12/25 06:27:57;;;;;;;40.50;12.00;;;4.70;1.00;;;;;;6226064;23;20210;-89
2022/12/25 06:30:24;;;;;;;91.07;14.68;;;3.10;1.00;;;;;;6225783;23;20190;-89
2022/12/25 06:32:51;;;;;;;68.63;12.52;;;3.00;1.00;;;;;;6225612;23;20274;-87
2022/12/25 06:35:17;;;;;;;78.22;14.43;;;2.70;1.00;;;;;;6225966;23;20666;-88
2022/12/25 06:37:45;;;;;;;65.55;11.50;;;2.80;1.00;;;;;;6226622;23;20180;-88
2022/12/25 06:40:14;;;;;;;63.20;16.05;;;2.80;1.00;;;;;;6235179;23;20639;-87
2022/12/25 06:42:40;;;;;;;64.03;12.32;;;2.80;1.00;;;;;;6226494;23;20652;-87
2022/12/25 06:45:08;;;;;;;43.78;11.63;;;2.70;1.00;;;;;;6224600;23;20214;-87
2022/12/25 06:47:36;;;;;;;73.68;13.55;;;2.40;1.00;;;;;;6224842;23;20179;-88
2022/12/25 06:50:04;;;;;;;62.00;12.73;;;2.70;1.00;;;;;;6225248;23;20187;-88
2022/12/25 06:52:31;;;;;;;27.85;10.85;;;2.60;1.00;;;;;;6224999;23;20196;-88
2022/12/25 06:54:59;;;;;;;50.13;14.32;;;2.60;1.00;;;;;;6227882;23;20425;-88
2022/12/25 06:57:27;;;;;;;25.38;10.57;;;2.60;1.00;;;;;;6228658;23;20493;-89
2022/12/25 06:59:54;;;;;;;28.75;11.52;;;2.60;1.00;;;;;;6230082;23;20187;-88
2022/12/25 07:02:23;;;;;;;38.00;10.27;;;2.70;1.00;;;;;;6234127;23;20250;-88
2022/12/25 07:04:51;;;;;;;42.85;11.35;;;2.70;1.00;;;;;;6237169;23;20266;-88
2022/12/25 07:07:17;;;;;;;45.00;11.75;;;2.70;1.00;;;;;;6240683;23;20206;-88
2022/12/25 07:09:44;;;;;;;31.15;11.65;;;2.80;1.00;;;;;;6238996;23;20179;-88
2022/12/25 07:12:15;;;;;;;25.63;10.48;;;3.00;1.00;;;;;;6240779;23;20203;-88
2022/12/25 07:14:44;;;;;;;26.73;9.93;;;2.80;1.00;;;;;;6237945;23;20156;-88
2022/12/25 07:17:11;;;;;;;24.95;10.32;;;3.30;1.00;;;;;;6242148;23;20232;-87
2022/12/25 07:19:38;;;;;;;26.45;10.85;;;2.70;1.00;;;;;;6236799;23;20175;-88
2022/12/25 07:22:05;;;;;;;16.17;9.70;;;2.80;1.00;;;;;;6232609;23;20195;-87
2022/12/25 07:24:32;;;;;;;18.02;10.43;;;2.90;1.00;;;;;;6228656;23;20203;-88
2022/12/25 07:26:58;;;;;;;20.55;10.70;;;2.90;1.00;;;;;;6232375;23;20187;-89
2022/12/25 07:29:25;;;;;;;19.80;8.48;;;3.00;1.00;;;;;;6233219;23;20202;-87
2022/12/25 07:31:54;;;;;;;15.65;9.02;;;2.60;1.00;;;;;;6232085;23;20251;-88
2022/12/25 07:34:21;;;;;;;19.50;8.50;;;2.80;1.00;;;;;;6229635;23;20190;-88
2022/12/25 07:36:50;;;;;;;13.15;8.18;;;2.90;1.00;;;;;;6228737;23;20206;-87
2022/12/25 07:39:17;;;;;;;15.02;9.43;;;2.90;1.00;;;;;;6227909;23;20178;-88
2022/12/25 07:41:44;;;;;;;17.65;8.30;;;3.00;1.00;;;;;;6227141;23;20226;-88
2022/12/25 07:44:11;;;;;;;18.23;8.82;;;3.00;1.00;;;;;;6231171;23;20759;-88
2022/12/25 07:46:38;;;;;;;22.90;9.18;;;3.00;1.00;;;;;;6226585;23;20227;-89
2022/12/25 07:49:06;;;;;;;22.55;9.70;;;3.00;1.00;;;;;;6226577;23;20680;-88
2022/12/25 07:51:33;;;;;;;15.10;8.85;;;2.90;1.00;;;;;;6226207;23;20250;-89
2022/12/25 07:54:00;;;;;;;23.08;9.00;;;2.90;1.00;;;;;;6235040;23;20167;-87
2022/12/25 07:56:27;;;;;;;26.65;8.00;;;2.90;1.00;;;;;;6243583;23;20187;-87
2022/12/25 07:58:54;;;;;;;21.35;9.18;;;3.10;1.00;;;;;;6243219;23;20163;-86
2022/12/25 08:01:22;;;;;;;37.47;9.90;;;2.90;1.00;;;;;;6241515;23;20199;-88
2022/12/25 08:03:50;;;;;;;36.63;9.25;;;2.80;1.00;;;;;;6231506;23;20195;-88
2022/12/25 08:06:19;;;;;;;18.13;10.27;;;3.80;1.00;;;;;;6236047;23;20185;-89
2022/12/25 08:08:46;;;;;;;22.33;8.57;;;2.70;1.00;;;;;;6235699;23;20215;-87
2022/12/25 08:11:13;;;;;;;15.38;8.90;;;3.00;1.00;;;;;;6240662;23;20199;-86
2022/12/25 08:13:40;;;;;;;16.48;7.70;;;3.00;1.00;;;;;;6242621;23;20226;-88
2022/12/25 08:16:09;;;;;;;22.42;8.52;;;2.90;1.00;;;;;;6241189;23;20163;-87
2022/12/25 08:18:37;;;;;;;25.13;8.95;;;3.00;1.00;;;;;;6241840;23;20250;-87
2022/12/25 08:21:09;;;;;;;15.50;7.60;;;3.00;1.00;;;;;;6241649;23;20183;-86
2022/12/25 08:23:41;;;;;;;21.00;8.30;;;3.10;1.00;;;;;;6239707;23;20188;-87
2022/12/25 08:26:10;;;;;;;10.63;6.40;;;3.00;1.00;;;;;;6238281;23;20163;-88
2022/12/25 08:28:37;;;;;;;14.25;8.05;;;3.00;1.00;;;;;;6233880;23;20577;-88
2022/12/25 08:31:09;;;;;;;18.80;8.57;;;3.10;1.00;;;;;;6229922;23;20191;-89
2022/12/25 08:33:36;;;;;;;20.85;8.68;;;3.00;1.00;;;;;;6228127;23;20230;-89
2022/12/25 08:36:04;;;;;;;12.95;7.90;;;3.30;1.00;;;;;;6228839;23;20559;-88
2022/12/25 08:38:31;;;;;;;24.55;10.13;;;3.10;1.00;;;;;;6227208;23;20183;-87
2022/12/25 08:40:59;;;;;;;26.65;9.57;;;3.10;1.00;;;;;;6226819;23;20525;-89
2022/12/25 08:43:26;;;;;;;30.58;11.13;;;2.90;1.00;;;;;;6227020;23;20225;-88
2022/12/25 08:46:04;;;;;;;27.23;11.60;;;3.00;1.00;;;;;;6228110;23;20203;-88
2022/12/25 08:48:31;;;;;;;26.85;10.05;;;3.00;1.00;;;;;;6226405;23;20207;-88
2022/12/25 08:50:58;;;;;;;54.83;12.40;;;3.00;1.00;;;;;;6225655;23;20206;-88
2022/12/25 08:53:25;;;;;;;43.42;12.02;;;2.90;1.00;;;;;;6225465;23;20175;-88
2022/12/25 08:55:59;;;;;;;37.38;11.48;;;3.20;1.00;;;;;;6224442;23;20258;-89
2022/12/25 08:58:26;;;;;;;28.58;10.20;;;3.00;1.00;;;;;;6225553;23;20220;-88
2022/12/25 09:00:53;;;;;;;44.00;11.70;;;2.50;1.00;;;;;;6225115;23;20748;-88
2022/12/25 09:03:20;;;;;;;57.30;10.95;;;;;;;;;;6225319;23;20688;-88
2022/12/25 09:05:47;;;;;;;21.95;10.40;;;2.70;1.00;;;;;;6224970;23;20680;-88
2022/12/25 09:08:14;;;;;;;26.05;10.27;;;2.80;1.00;;;;;;6233781;23;20183;-87
2022/12/25 09:10:41;;;;;;;31.38;10.63;;;2.80;1.00;;;;;;6227200;23;20210;-88
2022/12/25 09:13:09;;;;;;;25.75;9.75;;;2.80;1.00;;;;;;6230547;23;20172;-89
2022/12/25 09:15:40;;;;;;;27.38;10.57;;;3.00;1.00;;;;;;6228937;23;20210;-88
2022/12/25 09:18:07;;;;;;;29.17;9.32;;;2.90;1.00;;;;;;6229539;23;20171;-87
2022/12/25 09:20:34;;;;;;;46.35;12.60;;;3.00;1.00;;;;;;6237676;23;20170;-87
2022/12/25 09:23:00;;;;;;;31.30;11.98;;;3.20;1.00;;;;;;6242253;23;20179;-87
2022/12/25 09:25:27;;;;;;;40.35;12.15;;;3.00;1.00;;;;;;6237387;23;20179;-88
2022/12/25 09:27:56;;;;;;;42.63;13.57;;;2.90;1.00;;;;;;6230152;23;20232;-88
2022/12/25 09:30:24;;;;;;;23.50;12.50;;;2.80;1.00;;;;;;6229838;23;20258;-88
2022/12/25 09:32:51;;;;;;;22.88;10.68;;;3.00;1.00;;;;;;6229632;23;20211;-88
2022/12/25 09:35:18;;;;;;;22.67;10.57;;;3.00;1.00;;;;;;6235577;23;20179;-88
2022/12/25 09:37:45;;;;;;;29.60;12.88;;;2.90;1.00;;;;;;6243105;23;20394;-88
2022/12/25 09:40:16;;;;;;;31.48;13.30;;;2.90;1.00;;;;;;6244237;23;20199;-88
2022/12/25 09:42:46;;;;;;;32.85;12.52;;;;;;;;;;6251493;22;20662;-82
2022/12/25 09:45:18;;;;;;;58.53;14.57;;;2.90;1.00;;;;;;6256922;22;20198;-82
2022/12/25 09:47:48;;;;;;;25.35;11.77;;;2.90;1.00;;;;;;6257171;22;20174;-82
2022/12/25 09:50:26;;;;;;;48.53;12.70;;;2.90;1.00;;;;;;6256608;22;20241;-82
2022/12/25 09:53:03;;;;;;;35.38;13.82;;;2.90;1.00;;;;;;6229703;22;20187;-82
2022/12/25 09:55:34;;;;;;;35.70;16.00;;;3.00;1.00;;;;;;6231555;23;20170;-82
2022/12/25 09:58:11;;;;;;;20.50;12.60;;;3.00;1.00;;;;;;6229293;23;20164;-83
2022/12/25 10:00:42;;;;;;;33.58;12.80;;;3.30;1.00;;;;;;6227949;23;20550;-81
2022/12/25 10:03:41;;;;;;;32.40;13.25;;;3.00;1.00;;;;;;6224193;23;20581;-82
2022/12/25 10:06:16;;;;;;;28.98;14.68;;;2.90;1.00;;;;;;6223042;23;20187;-83
2022/12/25 10:09:06;;;;;;;41.75;15.77;;;2.90;1.00;;;;;;6223813;23;20223;-83
2022/12/25 10:11:52;;;;;;;60.78;15.98;;;2.90;1.00;;;;;;6223877;23;20223;-83
2022/12/25 10:14:28;;;;;;;32.30;13.93;;;3.10;1.00;;;;;;6225000;23;20585;-83
2022/12/25 10:17:06;;;;;;;60.58;16.23;;;3.40;1.00;;;;;;6225634;23;20202;-83
2022/12/25 10:19:43;;;;;;;68.60;19.75;;;3.10;1.00;;;;;;6225148;23;20164;-83
2022/12/25 10:22:14;;;;;;;39.35;18.90;;;3.10;1.00;;;;;;6228069;23;20229;-83
2022/12/25 10:24:48;;;;;;;30.70;14.52;;;3.10;1.00;;;;;;6226202;23;20259;-83
2022/12/25 10:27:18;;;;;;;37.88;14.13;;;3.30;1.00;;;;;;6223862;23;20608;-83
2022/12/25 10:29:52;;;;;;;35.25;16.10;;;3.50;1.00;;;;;;6224398;23;20167;-83
2022/12/25 10:32:18;;;;;;;36.60;18.15;;;3.50;1.00;;;;;;6224907;23;20195;-83
2022/12/25 10:34:47;;;;;;;32.67;15.63;;;3.70;1.00;;;;;;6224041;23;20183;-83
2022/12/25 10:37:14;;;;;;;35.85;16.27;;;3.80;1.00;;;;;;6225134;23;20179;-83
2022/12/25 10:39:43;;;;;;;44.72;16.45;;;3.60;1.00;;;;;;6225183;23;20690;-83
2022/12/25 10:42:33;;;;;;;33.45;15.75;;;3.60;1.00;;;;;;6224810;23;20505;-82
2022/12/25 10:45:02;;;;;;;36.15;14.73;;;3.80;1.00;;;;;;6225476;23;20183;-83
2022/12/25 10:47:31;;;;;;;42.83;14.15;;;4.00;1.00;;;;;;6238969;23;20179;-82
2022/12/25 10:50:01;;;;;;;28.50;14.35;;;3.70;1.00;;;;;;6240473;23;20167;-82
2022/12/25 10:52:28;;;;;;;32.28;16.30;;;3.80;1.00;;;;;;6234584;23;20402;-83
2022/12/25 10:54:56;;;;;;;26.27;15.55;;;3.80;1.00;;;;;;6237370;23;20175;-82
2022/12/25 10:57:28;;;;;;;38.63;17.80;;;3.90;1.00;;;;;;6228935;23;20412;-83
2022/12/25 10:59:56;;;;;;;28.63;16.33;;;4.30;1.00;;;;;;6226662;23;20163;-83
2022/12/25 11:02:27;;;;;;;27.63;14.93;;;4.00;1.00;;;;;;6225314;23;20199;-83
2022/12/25 11:05:02;;;;;;;29.38;16.02;;;4.00;1.00;;;;;;6226059;23;20179;-82
2022/12/25 11:07:30;;;;;;;27.98;16.98;;;4.20;1.00;;;;;;6225405;23;20162;-82
2022/12/25 11:10:01;;;;;;;30.47;16.80;;;4.10;1.00;;;;;;6226819;23;20398;-83
2022/12/25 11:12:34;;;;;;;33.25;18.30;;;4.00;1.00;;;;;;6232349;23;20454;-83
2022/12/25 11:15:05;;;;;;;32.10;17.85;;;4.00;1.00;;;;;;6225215;23;20212;-83
2022/12/25 11:17:32;;;;;;;50.80;19.73;;;4.00;1.00;;;;;;6226073;23;20246;-82
2022/12/25 11:20:01;;;;;;;38.42;17.05;;;4.00;1.00;;;;;;6225255;23;20283;-82
2022/12/25 11:22:28;;;;;;;38.33;17.80;;;4.10;1.00;;;;;;6223772;23;20581;-83
2022/12/25 11:24:55;;;;;;;34.22;15.20;;;4.20;1.00;;;;;;6224471;23;20195;-83
2022/12/25 11:27:26;;;;;;;29.35;15.88;;;4.20;1.00;;;;;;6224034;23;20175;-84
2022/12/25 11:29:57;;;;;;;34.80;18.35;;;4.10;1.00;;;;;;6223841;23;20171;-83
2022/12/25 11:32:29;;;;;;;38.50;17.67;;;4.30;1.00;;;;;;6227397;23;20206;-83
2022/12/25 11:34:57;;;;;;;31.75;16.00;;;4.40;1.00;;;;;;6227390;23;20199;-82
2022/12/25 11:37:32;;;;;;;31.60;16.00;;;4.40;1.00;;;;;;6224199;23;20234;-83
2022/12/25 11:39:59;;;;;;;27.95;16.52;;;4.70;1.00;;;;;;6223897;23;20163;-82
2022/12/25 11:42:31;;;;;;;27.70;17.58;;;4.40;1.00;;;;;;6223375;23;20262;-83
2022/12/25 11:45:03;;;;;;;38.05;19.65;;;4.50;1.00;;;;;;6224526;23;20195;-83
2022/12/25 11:47:35;;;;;;;37.10;21.00;;;4.50;1.00;;;;;;6225428;23;20194;-82
2022/12/25 11:50:07;;;;;;;38.65;19.10;;;4.60;1.00;;;;;;6225267;23;20190;-83
2022/12/25 11:52:38;;;;;;;36.60;19.65;;;4.60;1.00;;;;;;6229078;23;20206;-84
2022/12/25 11:55:15;;;;;;;36.40;20.33;;;4.60;1.00;;;;;;6231780;23;20239;-83
2022/12/25 11:57:45;;;;;;;34.30;20.90;;;4.70;1.00;;;;;;6236003;23;20158;-83
2022/12/25 12:00:16;;;;;;;29.77;19.02;;;4.50;1.00;;;;;;6242170;23;20162;-82
2022/12/25 12:02:46;;;;;;;29.13;15.48;;;4.80;1.00;;;;;;6241993;23;20206;-82
2022/12/25 12:05:19;;;;;;;30.15;16.70;;;4.70;1.00;;;;;;6241815;23;20202;-82
2022/12/25 12:08:00;;;;;;;32.10;18.25;;;4.70;1.00;;;;;;6242947;23;20168;-82
2022/12/25 12:10:35;;;;;;;25.98;16.52;;;4.80;1.00;;;;;;6242670;23;20174;-83
2022/12/25 12:13:23;;;;;;;24.27;14.88;;;4.70;1.00;;;;;;6241567;23;20202;-82
2022/12/25 12:15:51;;;;;;;24.92;15.77;;;4.80;1.00;;;;;;6236545;23;20160;-82
2022/12/25 12:18:22;;;;;;;26.95;14.85;;;4.90;1.00;;;;;;6230790;23;20559;-83
2022/12/25 12:21:01;;;;;;;27.33;14.95;;;5.20;1.00;;;;;;6228780;23;20186;-82
2022/12/25 12:23:34;;;;;;;21.88;13.88;;;4.90;1.00;;;;;;6229651;23;20659;-83
2022/12/25 12:26:01;;;;;;;21.42;13.80;;;5.00;1.00;;;;;;6228812;23;20180;-83
2022/12/25 12:28:34;;;;;;;23.00;13.13;;;5.00;1.00;;;;;;6227692;23;20246;-83
2022/12/25 12:31:04;;;;;;;25.58;13.20;;;5.30;1.00;;;;;;6225097;23;20238;-84
2022/12/25 12:33:36;;;;;;;20.45;13.52;;;5.10;1.00;;;;;;6224392;23;20171;-84
2022/12/25 12:36:05;;;;;;;22.13;14.43;;;5.10;1.00;;;;;;6230646;23;20171;-83
2022/12/25 12:38:35;;;;;;;17.40;12.00;;;5.10;1.00;;;;;;6233997;23;20187;-83
2022/12/25 12:41:05;;;;;;;22.98;13.63;;;5.10;1.00;;;;;;6232875;23;20223;-81
2022/12/25 12:43:36;;;;;;;22.77;12.88;;;5.40;1.00;;;;;;6225422;23;20496;-83
2022/12/25 12:46:07;;;;;;;27.73;13.57;;;5.40;1.00;;;;;;6226326;23;20189;-83
2022/12/25 12:48:41;;;;;;;19.60;12.77;;;5.50;1.00;;;;;;6226492;23;20167;-83
2022/12/25 12:51:09;;;;;;;13.80;9.63;;;5.30;1.00;;;;;;6225833;23;20209;-83
2022/12/25 12:53:39;;;;;;;17.73;10.93;;;5.80;1.00;;;;;;6226785;23;20197;-84
2022/12/25 12:56:19;;;;;;;15.52;10.32;;;5.60;1.00;;;;;;6226873;23;20548;-83
2022/12/25 13:08:16;;;;;;;21.13;10.48;;;5.40;1.00;;;;;;6218626;23;20254;-83
2022/12/25 13:10:58;;;;;;;23.02;10.88;;;5.40;1.00;;;;;;6227083;23;20239;-83
2022/12/25 13:13:34;;;;;;;17.92;11.77;;;5.50;1.00;;;;;;6235951;23;20179;-82
2022/12/25 13:16:01;;;;;;;15.32;10.32;;;5.70;1.00;;;;;;6232558;23;20186;-82
2022/12/25 13:18:28;;;;;;;17.33;10.00;;;5.50;1.00;;;;;;6225953;23;20214;-83
2022/12/25 13:20:58;;;;;;;15.43;10.63;;;5.40;1.00;;;;;;6225920;23;20257;-83
2022/12/25 13:23:27;;;;;;;15.93;11.35;;;5.40;1.00;;;;;;6224542;23;20171;-83
2022/12/25 13:26:08;;;;;;;15.70;10.90;;;5.50;1.00;;;;;;6224017;23;20547;-83
2022/12/25 13:28:54;;;;;;;24.02;12.77;;;5.60;1.00;;;;;;6224788;23;20159;-83
2022/12/25 13:31:43;;;;;;;19.20;10.88;;;;;;;;;;6224765;23;20191;-83
2022/12/25 13:34:32;;;;;;;11.10;8.05;;;5.50;1.00;;;;;;6225052;23;20175;-83
2022/12/25 13:37:00;;;;;;;12.73;8.85;;;;;;;;;;6225431;23;20198;-83
2022/12/25 13:39:27;;;;;;;14.18;8.90;;;5.30;1.00;;;;;;6224517;23;20182;-83
2022/12/25 13:42:09;;;;;;;14.88;10.27;;;5.50;1.00;;;;;;6225376;23;20591;-83
2022/12/25 13:44:43;;;;;;;11.63;8.38;;;5.50;1.00;;;;;;6225434;23;20163;-83
2022/12/25 13:47:27;;;;;;;14.10;9.73;;;5.60;1.00;;;;;;6226847;23;20190;-85
2022/12/25 13:49:56;;;;;;;10.63;8.85;;;5.50;1.00;;;;;;6225708;23;20179;-83
2022/12/25 13:52:31;;;;;;;16.40;9.63;;;5.50;1.00;;;;;;6225935;23;20668;-83
2022/12/25 13:55:00;;;;;;;16.60;8.75;;;5.50;1.00;;;;;;6226577;23;20186;-84
2022/12/25 13:57:33;;;;;;;14.35;8.90;;;5.50;1.00;;;;;;6225491;23;20182;-83
2022/12/25 14:00:00;;;;;;;21.75;10.18;;;5.50;1.00;;;;;;6230430;23;20190;-84
2022/12/25 14:02:34;;;;;;;15.30;10.02;;;5.40;1.00;;;;;;6238732;23;20509;-82
2022/12/25 14:05:01;;;;;;;13.52;8.90;;;5.50;1.00;;;;;;6240957;23;20171;-82
2022/12/25 14:07:28;;;;;;;15.63;9.18;;;5.50;1.00;;;;;;6243383;23;20210;-82
2022/12/25 14:09:59;;;;;;;17.98;9.95;;;5.50;1.00;;;;;;6237590;23;20171;-82
2022/12/25 14:12:31;;;;;;;15.10;9.98;;;5.20;1.00;;;;;;6226790;23;20206;-84
2022/12/25 14:15:00;;;;;;;19.80;11.48;;;5.50;1.00;;;;;;6224661;23;20243;-83
2022/12/25 14:17:27;;;;;;;15.20;9.38;;;5.10;1.00;;;;;;6224660;23;20672;-83
2022/12/25 14:19:58;;;;;;;13.60;8.88;;;5.50;1.00;;;;;;6231612;23;20187;-83
2022/12/25 14:22:27;;;;;;;15.82;10.98;;;5.60;1.00;;;;;;6220216;23;20199;-83
2022/12/25 14:24:54;;;;;;;14.35;10.05;;;5.30;1.00;;;;;;6220184;23;20176;-83
2022/12/25 14:27:24;;;;;;;18.20;10.65;;;5.50;1.00;;;;;;6223455;23;20167;-83
2022/12/25 14:29:56;;;;;;;11.90;10.70;;;5.50;1.00;;;;;;6226766;23;20205;-83
2022/12/25 14:32:28;;;;;;;17.98;10.70;;;5.40;1.00;;;;;;6226299;23;20278;-83
2022/12/25 14:34:58;;;;;;;17.70;12.48;;;5.50;1.00;;;;;;6225159;23;20199;-83
2022/12/25 14:37:28;;;;;;;19.83;12.50;;;5.50;1.00;;;;;;6226879;23;20189;-82
2022/12/25 14:39:59;;;;;;;17.30;11.68;;;5.50;1.00;;;;;;6226730;23;20226;-83
2022/12/25 14:42:28;;;;;;;26.02;13.93;;;5.70;1.00;;;;;;6235273;23;20231;-82
2022/12/25 14:45:26;;;;;;;23.02;15.00;;;5.30;1.00;;;;;;6243077;23;20167;-82
2022/12/25 14:47:55;;;;;;;16.23;12.43;;;5.50;1.00;;;;;;6238948;23;20164;-84
2022/12/25 14:50:26;;;;;;;26.70;14.38;;;5.80;1.00;;;;;;6221703;23;20179;-83
2022/12/25 14:52:54;;;;;;;24.23;12.65;;;5.50;1.00;;;;;;6221300;23;20274;-83
2022/12/25 14:55:23;;;;;;;15.10;11.85;;;5.60;1.00;;;;;;6220613;23;20206;-83